Time;durP1;ratioP1;P1;durP2;ratioP2;P2;SDS_P1;SDS_P2;PMS_P1;PMS_P2;Temp;Humidity;BMP_temperature;BMP_pressure;BME280_temperature;BME280_humidity;BME280_pressure;Samples;Min_cycle;Max_cycle;Signal;HPM_P1;HPM_P2
2022/08/08 00:02:11;;;;;;;11.10;6.20;;;15.40;99.90;;;;;;5052198;28;20477;-84
2022/08/08 00:04:45;;;;;;;9.57;5.00;;;15.40;99.90;;;;;;5052141;28;20519;-80
2022/08/08 00:07:25;;;;;;;10.65;4.95;;;15.50;99.90;;;;;;5053482;28;20052;-79
2022/08/08 00:10:18;;;;;;;11.27;4.85;;;15.50;99.90;;;;;;5052067;28;20045;-79
2022/08/08 00:12:56;;;;;;;9.40;4.93;;;15.50;99.90;;;;;;5052066;28;20052;-79
2022/08/08 00:15:27;;;;;;;7.35;4.03;;;15.60;99.90;;;;;;5053170;28;20831;-80
2022/08/08 00:18:04;;;;;;;8.20;4.78;;;15.60;99.90;;;;;;5053561;28;20045;-79
2022/08/08 00:20:36;;;;;;;12.95;5.50;;;15.60;99.90;;;;;;5052276;28;20083;-79
2022/08/08 00:23:06;;;;;;;7.30;4.43;;;15.60;99.90;;;;;;5053233;28;20040;-79
2022/08/08 00:25:46;;;;;;;11.15;4.78;;;15.70;99.90;;;;;;5053027;28;20060;-79
2022/08/08 00:28:15;;;;;;;9.32;4.45;;;15.80;99.90;;;;;;5053250;28;20048;-79
2022/08/08 00:30:51;;;;;;;10.00;4.40;;;15.80;99.90;;;;;;5052027;28;20051;-79
2022/08/08 00:33:20;;;;;;;10.90;5.25;;;15.80;99.90;;;;;;5052211;28;20404;-79
2022/08/08 00:36:02;;;;;;;14.00;6.45;;;15.80;99.90;;;;;;5051777;28;20083;-79
2022/08/08 00:38:33;;;;;;;11.98;4.72;;;15.90;99.90;;;;;;5052977;28;20048;-79
2022/08/08 00:41:07;;;;;;;11.98;5.05;;;16.00;99.90;;;;;;5051745;28;20047;-79
2022/08/08 00:43:36;;;;;;;12.43;5.00;;;16.00;99.90;;;;;;5053048;28;20488;-79
2022/08/08 00:46:13;;;;;;;10.55;5.78;;;16.00;99.90;;;;;;5052963;28;20045;-79
2022/08/08 00:48:57;;;;;;;9.40;4.30;;;16.10;99.90;;;;;;5051838;28;20057;-79
2022/08/08 00:52:25;;;;;;;9.43;4.60;;;16.00;99.90;;;;;;5053158;28;20049;-79
2022/08/08 00:55:03;;;;;;;11.57;4.68;;;16.10;99.90;;;;;;4979029;28;20054;-79
2022/08/08 00:57:47;;;;;;;11.75;5.82;;;16.10;99.90;;;;;;5056592;28;20123;-79
2022/08/08 01:00:19;;;;;;;11.00;5.28;;;16.10;99.90;;;;;;5056341;28;20049;-79
2022/08/08 01:03:11;;;;;;;9.43;5.20;;;16.10;99.90;;;;;;5056366;28;20603;-79
2022/08/08 01:06:13;;;;;;;14.00;5.60;;;16.10;99.90;;;;;;5055390;28;20063;-79
2022/08/08 01:09:00;;;;;;;10.30;5.70;;;16.10;99.90;;;;;;5056379;28;20128;-79
2022/08/08 01:11:44;;;;;;;10.52;5.78;;;16.10;99.90;;;;;;5056539;28;20131;-79
2022/08/08 01:14:19;;;;;;;12.50;6.03;;;16.10;99.90;;;;;;5056289;28;20124;-79
2022/08/08 01:16:59;;;;;;;10.57;5.60;;;16.10;99.90;;;;;;5056306;28;20041;-79
2022/08/08 01:19:52;;;;;;;9.68;5.28;;;16.10;99.90;;;;;;5055125;28;20049;-79
2022/08/08 01:22:44;;;;;;;12.65;5.78;;;16.10;99.90;;;;;;5056153;28;20045;-79
2022/08/08 01:25:47;;;;;;;15.52;5.57;;;16.10;99.90;;;;;;5055888;28;20053;-79
2022/08/08 01:28:16;;;;;;;13.85;6.13;;;16.10;99.90;;;;;;5054599;28;20064;-79
2022/08/08 01:31:15;;;;;;;10.75;5.03;;;16.10;99.90;;;;;;5054529;28;20128;-79
2022/08/08 01:34:05;;;;;;;8.88;5.00;;;16.10;99.90;;;;;;5054611;28;20045;-79
2022/08/08 01:36:56;;;;;;;10.02;5.43;;;16.10;99.90;;;;;;5054446;28;20045;-79
2022/08/08 01:39:53;;;;;;;13.35;6.18;;;16.10;99.90;;;;;;5044086;28;20057;-79
2022/08/08 01:42:19;;;;;;;12.82;5.85;;;16.10;99.90;;;;;;5054525;28;20095;-79
2022/08/08 01:44:54;;;;;;;9.90;5.57;;;16.10;99.90;;;;;;5055728;28;20045;-79
2022/08/08 01:47:31;;;;;;;12.13;5.85;;;16.10;99.90;;;;;;5055711;28;20045;-79
2022/08/08 01:50:40;;;;;;;10.82;5.43;;;16.10;99.90;;;;;;5055628;28;20053;-79
2022/08/08 01:53:17;;;;;;;13.60;5.15;;;16.10;99.90;;;;;;5054116;28;20049;-78
2022/08/08 01:55:46;;;;;;;12.55;5.53;;;16.10;99.90;;;;;;5054377;28;20056;-79
2022/08/08 01:58:39;;;;;;;12.93;6.15;;;16.10;99.90;;;;;;5055288;28;20480;-79
2022/08/08 02:01:20;;;;;;;;;;;16.10;99.90;;;;;;5055793;28;20045;-79
2022/08/08 02:04:02;;;;;;;11.07;5.38;;;16.10;99.90;;;;;;5054838;28;19927;-79
2022/08/08 02:06:57;;;;;;;11.30;5.07;;;16.20;99.90;;;;;;5055275;28;20186;-79
2022/08/08 02:09:48;;;;;;;11.25;6.15;;;16.10;99.90;;;;;;5050241;28;20056;-79
2022/08/08 02:12:42;;;;;;;10.70;6.40;;;16.10;99.90;;;;;;5055172;28;20045;-79
2022/08/08 02:15:15;;;;;;;10.70;6.25;;;16.20;99.90;;;;;;5053911;28;20041;-79
2022/08/08 02:18:03;;;;;;;13.30;7.57;;;16.20;99.90;;;;;;5055023;28;20435;-79
2022/08/08 02:20:32;;;;;;;11.27;7.80;;;16.20;99.90;;;;;;5053900;28;20037;-79
2022/08/08 02:23:19;;;;;;;15.77;7.97;;;16.20;99.90;;;;;;5054989;28;20067;-79
2022/08/08 02:26:15;;;;;;;12.38;8.27;;;16.20;99.90;;;;;;5053334;28;20053;-79
2022/08/08 02:29:23;;;;;;;14.10;7.78;;;16.10;99.90;;;;;;5053453;28;20396;-79
2022/08/08 02:32:25;;;;;;;14.85;7.65;;;16.10;99.90;;;;;;5053546;28;20484;-79
2022/08/08 02:35:01;;;;;;;13.93;7.53;;;16.10;99.90;;;;;;5054549;28;20429;-83
2022/08/08 02:38:04;;;;;;;13.07;7.40;;;16.00;99.90;;;;;;5053381;28;20059;-80
2022/08/08 02:41:02;;;;;;;14.50;6.65;;;16.10;99.90;;;;;;5054629;28;20052;-80
2022/08/08 02:43:33;;;;;;;13.45;6.85;;;16.00;99.90;;;;;;5053211;28;20052;-81
2022/08/08 02:46:41;;;;;;;11.35;6.22;;;16.10;99.90;;;;;;5053074;28;20053;-80
2022/08/08 02:49:34;;;;;;;11.88;6.55;;;16.10;99.90;;;;;;5053467;28;20053;-80
2022/08/08 02:52:05;;;;;;;14.65;6.97;;;16.10;99.90;;;;;;5053103;28;20109;-80
2022/08/08 02:55:06;;;;;;;10.90;6.50;;;16.10;99.90;;;;;;5053055;28;20551;-80
2022/08/08 02:57:38;;;;;;;12.35;6.20;;;16.10;99.90;;;;;;5039231;28;20053;-80
2022/08/08 03:00:16;;;;;;;14.85;7.65;;;16.10;99.90;;;;;;5052885;28;20041;-80
2022/08/08 03:03:17;;;;;;;14.73;8.15;;;16.10;99.90;;;;;;5054172;28;20123;-81
2022/08/08 03:06:18;;;;;;;14.65;8.15;;;16.10;99.90;;;;;;5053246;28;20053;-81
2022/08/08 03:09:03;;;;;;;12.93;7.43;;;16.10;99.90;;;;;;5052731;28;20049;-80
2022/08/08 03:11:53;;;;;;;14.32;8.00;;;16.10;99.90;;;;;;5052686;28;20049;-80
2022/08/08 03:15:01;;;;;;;13.27;7.78;;;16.10;99.90;;;;;;5052088;28;20512;-80
2022/08/08 03:17:51;;;;;;;12.95;7.93;;;16.10;99.90;;;;;;5052511;28;20531;-80
2022/08/08 03:20:17;;;;;;;12.27;6.60;;;16.00;99.90;;;;;;5014771;28;20053;-80
2022/08/08 03:22:53;;;;;;;10.93;6.57;;;16.10;99.90;;;;;;5054157;28;20394;-79
2022/08/08 03:25:26;;;;;;;11.70;6.40;;;16.10;99.90;;;;;;5053492;28;20439;-79
2022/08/08 03:28:20;;;;;;;7.32;5.07;;;16.10;99.90;;;;;;5053619;28;20053;-80
2022/08/08 03:30:47;;;;;;;8.75;5.15;;;16.10;99.90;;;;;;5052510;28;20086;-79
2022/08/08 03:33:18;;;;;;;9.25;4.75;;;16.20;99.90;;;;;;5052573;28;20114;-80
2022/08/08 03:35:49;;;;;;;10.13;4.72;;;16.20;99.90;;;;;;5053950;28;20073;-80
2022/08/08 03:38:16;;;;;;;8.82;5.35;;;16.20;99.90;;;;;;5053787;28;20069;-80
2022/08/08 03:40:52;;;;;;;10.35;5.55;;;16.30;99.90;;;;;;5052539;28;20450;-80
2022/08/08 03:43:18;;;;;;;8.52;3.90;;;16.30;99.90;;;;;;5053581;28;20546;-80
2022/08/08 03:45:44;;;;;;;9.63;3.90;;;16.30;99.90;;;;;;5053485;28;20048;-79
2022/08/08 03:48:10;;;;;;;6.10;3.40;;;16.40;99.90;;;;;;5052233;28;20075;-79
2022/08/08 03:50:40;;;;;;;9.68;3.80;;;16.50;99.90;;;;;;5052392;28;20103;-79
2022/08/08 03:53:10;;;;;;;7.90;3.13;;;16.60;99.90;;;;;;5053669;28;20052;-79
2022/08/08 03:55:42;;;;;;;9.98;3.33;;;16.70;99.90;;;;;;5053296;28;20142;-79
2022/08/08 03:58:09;;;;;;;6.13;3.10;;;16.70;99.90;;;;;;5051839;28;20067;-79
2022/08/08 04:00:35;;;;;;;6.05;3.10;;;16.80;99.90;;;;;;5053283;28;20280;-79
2022/08/08 04:03:06;;;;;;;6.82;3.10;;;16.80;99.90;;;;;;5051663;28;20090;-79
2022/08/08 04:05:35;;;;;;;6.13;3.25;;;16.80;99.90;;;;;;5052645;28;20041;-79
2022/08/08 04:08:02;;;;;;;7.43;3.10;;;16.90;99.90;;;;;;5051742;28;20511;-79
2022/08/08 04:10:30;;;;;;;8.43;3.13;;;16.90;99.90;;;;;;5052908;28;20579;-82
2022/08/08 04:12:56;;;;;;;7.90;3.58;;;16.90;99.90;;;;;;5053386;28;20067;-81
2022/08/08 04:15:22;;;;;;;6.13;2.63;;;16.90;99.90;;;;;;5051795;28;20484;-79
2022/08/08 04:17:48;;;;;;;5.63;3.15;;;16.90;99.90;;;;;;5053015;28;20519;-79
2022/08/08 04:20:14;;;;;;;8.50;3.47;;;17.00;99.90;;;;;;5053034;28;20057;-79
2022/08/08 04:22:40;;;;;;;6.30;2.70;;;17.00;99.90;;;;;;5051943;28;20045;-79
2022/08/08 04:25:07;;;;;;;9.18;3.10;;;17.00;99.90;;;;;;5051750;28;20445;-79
2022/08/08 04:27:33;;;;;;;5.95;3.25;;;17.00;99.90;;;;;;5056710;28;20103;-80
2022/08/08 04:30:00;;;;;;;8.35;2.92;;;17.10;99.90;;;;;;5055678;28;20082;-79
2022/08/08 04:32:26;;;;;;;9.68;2.88;;;17.10;99.90;;;;;;5055471;28;20048;-79
2022/08/08 04:34:52;;;;;;;6.30;3.28;;;17.10;99.90;;;;;;5055513;28;20049;-79
2022/08/08 04:37:17;;;;;;;9.52;3.30;;;17.10;99.90;;;;;;5056642;28;20052;-79
2022/08/08 04:39:43;;;;;;;7.72;3.20;;;17.00;99.90;;;;;;5056868;28;20107;-79
2022/08/08 04:42:09;;;;;;;6.40;2.65;;;17.00;99.90;;;;;;5056889;28;20106;-79
2022/08/08 04:44:34;;;;;;;6.10;3.00;;;17.10;99.90;;;;;;5056829;28;20131;-79
2022/08/08 04:47:00;;;;;;;6.45;2.53;;;17.10;99.90;;;;;;5056543;28;20041;-79
2022/08/08 04:49:26;;;;;;;8.38;2.83;;;17.10;99.90;;;;;;5056796;28;20112;-79
2022/08/08 04:51:51;;;;;;;6.18;2.80;;;17.00;99.90;;;;;;5056321;28;20045;-79
2022/08/08 04:54:17;;;;;;;5.97;2.40;;;17.00;99.90;;;;;;5056633;28;20041;-79
2022/08/08 04:56:43;;;;;;;6.13;2.30;;;17.00;99.90;;;;;;5056626;28;20043;-80
2022/08/08 04:59:08;;;;;;;6.30;2.65;;;17.10;99.90;;;;;;5056595;28;20458;-79
2022/08/08 05:01:34;;;;;;;9.10;2.78;;;17.10;99.90;;;;;;5056519;28;20435;-79
2022/08/08 05:04:00;;;;;;;4.15;2.58;;;17.10;99.90;;;;;;5056156;28;20404;-80
2022/08/08 05:06:25;;;;;;;6.57;2.50;;;17.10;99.90;;;;;;5056228;28;20132;-79
2022/08/08 05:08:52;;;;;;;5.28;2.35;;;17.10;99.90;;;;;;5055145;28;20037;-79
2022/08/08 05:11:18;;;;;;;6.47;2.58;;;17.20;99.90;;;;;;5056254;28;20084;-79
2022/08/08 05:13:44;;;;;;;5.85;2.38;;;17.20;99.90;;;;;;5055961;28;20455;-79
2022/08/08 05:16:10;;;;;;;5.68;2.40;;;17.20;99.90;;;;;;5054957;28;20477;-79
2022/08/08 05:18:36;;;;;;;6.53;2.28;;;17.20;99.90;;;;;;5056034;28;20045;-79
2022/08/08 05:21:03;;;;;;;6.88;2.58;;;17.20;99.90;;;;;;5055812;28;20511;-80
2022/08/08 05:23:29;;;;;;;8.10;2.28;;;17.30;99.90;;;;;;5054831;28;20396;-79
2022/08/08 05:25:56;;;;;;;5.35;2.40;;;17.30;99.90;;;;;;5055651;28;20104;-79
2022/08/08 05:28:21;;;;;;;7.93;2.58;;;17.40;99.90;;;;;;5055959;28;20076;-79
2022/08/08 05:30:47;;;;;;;8.05;2.65;;;17.40;99.90;;;;;;5054636;28;20076;-79
2022/08/08 05:33:14;;;;;;;3.83;2.25;;;17.40;99.90;;;;;;5055920;28;20045;-79
2022/08/08 05:35:42;;;;;;;8.38;2.53;;;17.40;99.90;;;;;;5055781;28;20040;-79
2022/08/08 05:38:12;;;;;;;6.93;2.60;;;17.50;99.90;;;;;;5053386;28;20049;-79
2022/08/08 05:40:44;;;;;;;5.75;2.30;;;17.60;99.90;;;;;;5055838;28;20049;-79
2022/08/08 05:43:22;;;;;;;4.47;2.08;;;17.70;99.90;;;;;;5055743;28;20045;-79
2022/08/08 05:45:48;;;;;;;3.47;2.08;;;17.70;99.90;;;;;;5054401;28;20492;-79
2022/08/08 05:48:16;;;;;;;6.47;2.17;;;17.80;99.90;;;;;;5055457;28;20056;-79
2022/08/08 05:50:42;;;;;;;4.53;2.47;;;17.90;99.90;;;;;;5055329;28;20518;-79
2022/08/08 05:53:08;;;;;;;5.10;2.25;;;18.00;99.90;;;;;;5054311;28;20048;-79
2022/08/08 05:55:35;;;;;;;5.38;2.15;;;18.10;99.90;;;;;;5055534;28;20399;-79
2022/08/08 05:58:04;;;;;;;7.95;2.38;;;18.20;99.90;;;;;;5055168;28;20402;-79
2022/08/08 06:00:31;;;;;;;4.57;2.45;;;18.30;99.90;;;;;;5055204;28;20056;-79
2022/08/08 06:03:09;;;;;;;5.65;2.35;;;18.40;99.90;;;;;;5055040;28;20531;-79
2022/08/08 06:05:39;;;;;;;5.15;2.65;;;18.50;99.90;;;;;;5055373;28;20172;-79
2022/08/08 06:08:08;;;;;;;5.95;2.08;;;18.60;99.90;;;;;;5054010;28;20090;-79
2022/08/08 06:10:34;;;;;;;5.57;2.00;;;18.80;99.90;;;;;;5055031;28;20055;-79
2022/08/08 06:13:00;;;;;;;7.13;2.35;;;18.90;99.90;;;;;;5054819;28;20506;-79
2022/08/08 06:15:27;;;;;;;5.40;2.53;;;19.10;99.90;;;;;;5053783;28;20131;-79
2022/08/08 06:17:56;;;;;;;5.90;2.25;;;19.20;99.90;;;;;;5055051;28;20064;-79
2022/08/08 06:20:22;;;;;;;5.55;2.10;;;19.30;99.90;;;;;;5053749;28;20045;-79
2022/08/08 06:22:47;;;;;;;4.50;2.00;;;19.30;99.90;;;;;;5053458;28;20443;-80
2022/08/08 06:25:13;;;;;;;8.65;2.20;;;19.30;99.90;;;;;;5053410;28;20136;-80
2022/08/08 06:27:45;;;;;;;7.88;2.35;;;19.40;99.90;;;;;;5053609;28;20107;-80
2022/08/08 06:30:12;;;;;;;6.70;2.47;;;19.60;99.90;;;;;;5054941;28;20124;-80
2022/08/08 06:32:48;;;;;;;6.60;2.30;;;19.60;99.90;;;;;;5054704;28;20052;-80
2022/08/08 06:35:18;;;;;;;5.18;2.30;;;19.70;99.90;;;;;;5054735;28;20128;-80
2022/08/08 06:37:47;;;;;;;3.97;1.95;;;19.60;99.90;;;;;;5053407;28;20048;-80
2022/08/08 06:40:14;;;;;;;4.18;1.85;;;19.60;99.90;;;;;;5054545;28;20041;-80
2022/08/08 06:42:54;;;;;;;4.50;2.00;;;19.50;99.90;;;;;;5054619;28;20049;-80
2022/08/08 06:45:22;;;;;;;7.25;2.10;;;19.50;99.90;;;;;;5054517;28;20053;-79
2022/08/08 06:47:48;;;;;;;5.70;1.92;;;19.60;99.90;;;;;;5053206;28;20068;-80
2022/08/08 06:50:14;;;;;;;4.63;1.70;;;19.60;99.90;;;;;;5054128;28;20488;-79
2022/08/08 06:52:41;;;;;;;6.68;2.13;;;19.60;99.90;;;;;;5054039;28;20404;-80
2022/08/08 06:55:07;;;;;;;4.22;2.00;;;19.60;99.90;;;;;;5052867;28;20072;-80
2022/08/08 06:57:34;;;;;;;5.00;2.03;;;19.60;99.90;;;;;;5053123;28;20053;-80
2022/08/08 07:00:00;;;;;;;3.63;1.80;;;19.60;99.90;;;;;;5046142;28;20072;-79
2022/08/08 07:02:30;;;;;;;6.28;1.80;;;19.60;99.90;;;;;;5034477;28;20099;-79
2022/08/08 07:05:01;;;;;;;5.88;1.92;;;19.60;99.90;;;;;;5034122;28;20041;-79
2022/08/08 07:07:44;;;;;;;5.10;2.33;;;19.60;99.90;;;;;;5033973;28;20057;-80
2022/08/08 07:10:11;;;;;;;4.85;2.47;;;19.60;99.90;;;;;;5033572;28;20046;-80
2022/08/08 07:12:40;;;;;;;3.90;1.63;;;19.60;99.90;;;;;;5033751;28;20041;-81
2022/08/08 07:15:09;;;;;;;5.35;1.83;;;19.70;99.90;;;;;;5033677;28;20038;-80
2022/08/08 07:17:42;;;;;;;10.38;2.40;;;19.70;99.90;;;;;;5034077;28;20029;-80
2022/08/08 07:20:09;;;;;;;4.22;2.22;;;19.70;99.90;;;;;;5032712;28;20084;-80
2022/08/08 07:22:52;;;;;;;5.45;2.30;;;19.70;99.90;;;;;;5052275;28;20090;-81
2022/08/08 07:25:20;;;;;;;4.18;2.05;;;19.70;99.90;;;;;;5053464;28;20072;-79
2022/08/08 07:27:49;;;;;;;4.72;2.10;;;19.80;99.90;;;;;;5053500;28;20076;-80
2022/08/08 07:30:15;;;;;;;5.32;1.77;;;19.80;99.90;;;;;;5053500;28;20041;-87
2022/08/08 07:32:41;;;;;;;4.55;2.00;;;19.90;99.90;;;;;;5052028;28;20056;-80
2022/08/08 07:35:08;;;;;;;5.35;1.90;;;19.80;99.90;;;;;;5047779;28;20040;-81
2022/08/08 07:37:35;;;;;;;7.03;2.60;;;19.90;99.90;;;;;;5042277;28;20480;-80
2022/08/08 07:40:01;;;;;;;3.65;2.22;;;19.90;99.90;;;;;;5037322;28;20045;-80
2022/08/08 07:42:29;;;;;;;5.50;2.10;;;19.90;99.90;;;;;;5032291;28;20041;-80
2022/08/08 07:44:55;;;;;;;6.38;1.90;;;20.00;99.90;;;;;;5032219;28;20057;-80
2022/08/08 07:47:21;;;;;;;7.05;2.08;;;20.00;99.90;;;;;;5045954;28;20037;-79
2022/08/08 07:49:46;;;;;;;4.38;2.08;;;20.00;99.90;;;;;;5052145;28;20049;-81
2022/08/08 07:52:13;;;;;;;6.55;2.03;;;20.00;99.90;;;;;;5052409;28;20052;-80
2022/08/08 07:54:59;;;;;;;3.40;1.90;;;20.10;99.90;;;;;;5053027;28;20590;-80
2022/08/08 07:57:54;;;;;;;5.53;2.08;;;20.20;99.90;;;;;;5052940;28;20472;-80
2022/08/08 08:00:23;;;;;;;5.50;2.13;;;20.10;99.90;;;;;;5051621;28;20115;-80
2022/08/08 08:03:10;;;;;;;5.43;3.33;;;20.30;99.90;;;;;;5057267;28;20060;-80
2022/08/08 08:05:40;;;;;;;3.95;1.95;;;20.20;99.90;;;;;;5055900;28;20049;-79
2022/08/08 08:08:15;;;;;;;8.25;2.30;;;20.20;99.90;;;;;;5055887;28;20083;-79
2022/08/08 08:10:43;;;;;;;6.10;1.83;;;20.30;99.90;;;;;;5054021;28;20071;-82
2022/08/08 08:13:34;;;;;;;6.28;2.05;;;20.30;99.90;;;;;;5057089;28;20130;-79
2022/08/08 08:16:06;;;;;;;4.65;2.00;;;20.40;99.90;;;;;;5056497;28;20503;-80
2022/08/08 08:18:44;;;;;;;5.30;2.63;;;20.50;99.90;;;;;;5056980;28;20123;-80
2022/08/08 08:21:10;;;;;;;4.78;2.33;;;20.60;99.90;;;;;;5055635;28;20045;-79
2022/08/08 08:23:37;;;;;;;5.55;1.83;;;20.60;99.90;;;;;;5055936;28;20159;-79
2022/08/08 08:26:03;;;;;;;4.63;1.92;;;20.60;99.90;;;;;;5055294;28;20128;-79
2022/08/08 08:28:29;;;;;;;4.38;1.90;;;20.70;99.90;;;;;;5055370;28;20044;-80
2022/08/08 08:30:55;;;;;;;6.95;1.83;;;20.70;99.90;;;;;;5055361;28;20099;-79
2022/08/08 08:33:21;;;;;;;6.07;1.80;;;20.80;99.90;;;;;;5055671;28;20102;-79
2022/08/08 08:35:48;;;;;;;4.45;1.90;;;20.80;99.90;;;;;;5056854;28;20116;-79
2022/08/08 08:38:13;;;;;;;6.80;2.40;;;20.90;99.90;;;;;;5055224;28;20072;-80
2022/08/08 08:40:39;;;;;;;5.28;1.90;;;20.80;99.90;;;;;;5056797;28;20065;-80
2022/08/08 08:43:06;;;;;;;5.97;2.28;;;20.80;99.90;;;;;;5055089;28;20037;-79
2022/08/08 08:45:35;;;;;;;4.50;2.00;;;20.80;99.90;;;;;;5056707;28;20072;-79
2022/08/08 08:48:00;;;;;;;5.05;2.30;;;20.80;99.90;;;;;;5056566;28;20029;-80
2022/08/08 08:50:27;;;;;;;4.90;2.10;;;20.80;99.90;;;;;;5055265;28;20107;-79
2022/08/08 08:52:56;;;;;;;4.88;2.38;;;20.70;99.90;;;;;;5055235;28;20049;-80
2022/08/08 08:55:23;;;;;;;8.93;2.92;;;20.70;99.90;;;;;;5056248;28;20072;-80
2022/08/08 08:57:51;;;;;;;8.20;2.25;;;20.70;99.90;;;;;;5056194;28;20051;-79
2022/08/08 09:00:17;;;;;;;8.05;2.22;;;20.70;99.90;;;;;;5054824;28;20120;-79
2022/08/08 09:02:44;;;;;;;5.65;1.95;;;20.80;99.90;;;;;;5056167;28;20114;-79
2022/08/08 09:05:13;;;;;;;5.22;2.20;;;20.80;99.90;;;;;;5056051;28;20040;-79
2022/08/08 09:07:40;;;;;;;4.30;1.90;;;20.80;99.90;;;;;;5055098;28;20091;-79
2022/08/08 09:10:07;;;;;;;3.72;1.92;;;20.80;99.90;;;;;;5056116;28;20550;-79
2022/08/08 09:12:34;;;;;;;2.97;1.77;;;20.90;99.90;;;;;;5054935;28;20116;-80
2022/08/08 09:15:00;;;;;;;4.22;2.20;;;20.90;99.90;;;;;;5056103;28;20040;-80
2022/08/08 09:17:26;;;;;;;5.15;2.15;;;20.90;99.90;;;;;;5056147;28;20049;-80
2022/08/08 09:19:55;;;;;;;6.40;2.40;;;21.00;99.90;;;;;;5055865;28;20040;-80
2022/08/08 09:22:22;;;;;;;5.10;2.33;;;21.00;99.90;;;;;;5055784;28;20067;-80
2022/08/08 09:24:50;;;;;;;3.75;2.00;;;21.00;99.90;;;;;;5054397;28;20045;-80
2022/08/08 09:27:17;;;;;;;4.38;2.40;;;20.90;99.90;;;;;;5055720;28;20052;-80
2022/08/08 09:29:51;;;;;;;6.60;2.08;;;21.00;99.90;;;;;;5054534;28;20397;-80
2022/08/08 09:32:24;;;;;;;7.60;2.22;;;21.10;99.90;;;;;;5054440;28;20041;-80
2022/08/08 09:34:50;;;;;;;5.25;2.30;;;21.20;99.90;;;;;;5054562;28;20044;-80
2022/08/08 09:37:18;;;;;;;4.60;2.03;;;21.20;99.90;;;;;;5054124;28;20037;-79
2022/08/08 09:39:49;;;;;;;5.13;2.53;;;21.30;99.90;;;;;;5055644;28;20095;-79
2022/08/08 09:42:20;;;;;;;5.28;2.22;;;21.40;99.90;;;;;;5055569;28;20076;-79
2022/08/08 09:44:52;;;;;;;5.72;2.40;;;21.50;99.90;;;;;;5054102;28;20064;-79
2022/08/08 09:47:22;;;;;;;5.53;2.17;;;21.60;99.90;;;;;;5048528;28;20048;-79
2022/08/08 09:49:48;;;;;;;3.13;1.80;;;21.60;99.90;;;;;;5044696;28;20041;-79
2022/08/08 09:52:21;;;;;;;3.30;1.83;;;21.80;99.90;;;;;;5039262;28;20041;-78
2022/08/08 09:54:48;;;;;;;4.93;2.15;;;21.90;99.90;;;;;;5035285;28;20052;-78
2022/08/08 09:57:20;;;;;;;5.93;2.00;;;22.00;99.90;;;;;;5035154;28;20501;-78
2022/08/08 09:59:49;;;;;;;3.55;1.75;;;22.00;99.90;;;;;;5035241;28;20135;-78
2022/08/08 10:02:20;;;;;;;5.07;2.25;;;22.10;99.90;;;;;;5033757;28;20079;-78
2022/08/08 10:04:46;;;;;;;5.25;1.98;;;22.20;99.90;;;;;;5035107;28;20069;-78
2022/08/08 10:07:13;;;;;;;5.28;1.98;;;22.30;99.90;;;;;;5033628;28;20481;-78
2022/08/08 10:09:42;;;;;;;5.10;1.80;;;22.30;99.90;;;;;;5034896;28;20049;-80
2022/08/08 10:12:08;;;;;;;7.68;2.63;;;22.50;99.90;;;;;;5044856;28;20036;-79
2022/08/08 10:14:36;;;;;;;3.60;1.63;;;22.50;99.90;;;;;;5041457;28;20116;-79
2022/08/08 10:17:03;;;;;;;5.72;1.77;;;22.60;99.90;;;;;;5049866;28;20043;-79
2022/08/08 10:19:37;;;;;;;3.45;1.67;;;22.70;99.90;;;;;;5036546;28;20053;-79
2022/08/08 10:22:04;;;;;;;8.38;2.55;;;22.70;99.90;;;;;;5034907;28;20052;-79
2022/08/08 10:24:32;;;;;;;4.88;1.80;;;22.70;99.90;;;;;;5034171;28;20096;-78
2022/08/08 10:27:05;;;;;;;5.32;2.00;;;22.80;99.90;;;;;;5047916;28;20048;-78
2022/08/08 10:29:43;;;;;;;5.15;1.90;;;22.70;99.90;;;;;;5054292;28;20090;-78
2022/08/08 10:34:58;;;;;;;7.70;2.72;;;22.80;99.90;;;;;;5053099;28;20557;-78
2022/08/08 10:37:29;;;;;;;5.22;2.00;;;22.80;99.90;;;;;;5053043;28;20110;-79
2022/08/08 10:39:57;;;;;;;4.50;2.10;;;23.10;99.90;;;;;;5054439;28;20123;-79
2022/08/08 10:42:30;;;;;;;5.45;2.30;;;23.30;99.90;;;;;;5054135;28;20391;-78
2022/08/08 10:45:06;;;;;;;4.35;1.88;;;23.10;99.90;;;;;;5045908;28;20044;-79
2022/08/08 10:47:32;;;;;;;3.53;1.70;;;23.10;99.90;;;;;;5047739;28;20515;-78
2022/08/08 10:50:03;;;;;;;3.97;1.52;;;23.10;99.90;;;;;;5041584;28;20080;-79
2022/08/08 10:52:30;;;;;;;6.20;2.05;;;23.30;99.90;;;;;;5032657;28;20045;-79
2022/08/08 10:55:02;;;;;;;5.85;2.15;;;23.60;99.90;;;;;;5033118;28;20104;-79
2022/08/08 10:57:28;;;;;;;4.15;1.80;;;23.80;99.90;;;;;;5049483;28;20447;-79
2022/08/08 10:59:55;;;;;;;5.60;1.92;;;23.90;99.90;;;;;;5052378;28;20488;-79
2022/08/08 11:02:34;;;;;;;3.67;1.55;;;24.00;99.90;;;;;;5041949;28;20044;-79
2022/08/08 11:05:02;;;;;;;4.25;1.60;;;23.90;99.90;;;;;;5048161;28;20539;-79
2022/08/08 11:07:31;;;;;;;4.93;2.03;;;24.00;99.90;;;;;;5053629;28;20407;-79
2022/08/08 11:10:12;;;;;;;3.60;1.65;;;24.20;99.90;;;;;;5053750;28;20048;-79
2022/08/08 11:12:55;;;;;;;3.10;1.50;;;24.20;99.90;;;;;;5052375;28;20056;-79
2022/08/08 11:15:23;;;;;;;5.28;1.70;;;24.50;99.90;;;;;;5052246;28;20558;-79
2022/08/08 11:17:50;;;;;;;4.55;2.25;;;24.60;99.90;;;;;;5050902;28;20049;-79
2022/08/08 11:20:18;;;;;;;2.90;1.65;;;24.80;99.90;;;;;;5051784;28;20041;-79
2022/08/08 11:22:51;;;;;;;5.60;2.08;;;24.60;99.90;;;;;;5051825;28;20518;-80
2022/08/08 11:25:22;;;;;;;4.40;1.63;;;24.80;99.90;;;;;;5050682;28;20053;-80
2022/08/08 11:27:51;;;;;;;3.22;1.70;;;24.60;99.90;;;;;;5052161;28;20514;-80
2022/08/08 11:30:17;;;;;;;4.38;1.80;;;24.90;99.90;;;;;;5053277;28;20459;-80
2022/08/08 11:32:43;;;;;;;3.90;1.67;;;25.10;99.90;;;;;;5052085;28;20515;-80
2022/08/08 11:35:10;;;;;;;4.07;1.73;;;25.10;99.90;;;;;;5053172;28;20132;-80
2022/08/08 11:37:37;;;;;;;4.30;1.42;;;25.20;99.90;;;;;;5053214;28;20119;-79
2022/08/08 11:40:06;;;;;;;3.97;1.98;;;25.40;99.90;;;;;;5053202;28;20110;-80
2022/08/08 11:42:32;;;;;;;3.05;1.80;;;25.50;99.90;;;;;;5053145;28;20487;-86
2022/08/08 11:44:59;;;;;;;3.78;1.42;;;25.70;99.90;;;;;;5051870;28;20044;-88
2022/08/08 11:47:25;;;;;;;5.50;1.40;;;25.60;99.90;;;;;;5051095;28;20041;-87
2022/08/08 11:49:58;;;;;;;3.40;1.40;;;25.70;99.90;;;;;;5053076;28;20480;-85
2022/08/08 11:52:24;;;;;;;;;;;25.80;99.90;;;;;;5053489;28;20128;-91
2022/08/08 11:54:50;;;;;;;4.00;2.00;;;25.80;99.90;;;;;;5052038;28;19921;-85
2022/08/08 11:57:16;;;;;;;4.15;1.80;;;25.60;99.90;;;;;;5053376;28;20048;-86
2022/08/08 11:59:43;;;;;;;5.50;2.40;;;25.70;99.90;;;;;;5053240;28;20044;-89
2022/08/08 12:02:09;;;;;;;5.20;1.98;;;25.90;99.90;;;;;;5051825;28;20436;-88
2022/08/08 12:04:38;;;;;;;3.60;1.63;;;25.80;99.90;;;;;;5051807;28;20049;-89
2022/08/08 12:07:07;;;;;;;8.25;1.98;;;25.80;99.90;;;;;;5053075;28;20033;-85
2022/08/08 12:09:34;;;;;;;4.20;1.67;;;25.90;99.90;;;;;;5051505;28;20060;-79
2022/08/08 12:12:00;;;;;;;5.57;2.08;;;25.80;99.90;;;;;;5053158;28;20056;-78
2022/08/08 12:14:26;;;;;;;3.38;1.50;;;25.60;99.90;;;;;;5052882;28;20484;-80
2022/08/08 12:16:53;;;;;;;4.10;1.75;;;25.80;99.90;;;;;;5052850;28;20130;-86
2022/08/08 12:19:23;;;;;;;3.08;1.67;;;25.90;99.90;;;;;;5052969;28;20052;-90
2022/08/08 12:21:49;;;;;;;4.32;1.40;;;25.70;99.90;;;;;;5051499;28;20459;-89
2022/08/08 12:24:22;;;;;;;2.92;1.65;;;26.00;99.90;;;;;;5052790;28;20476;-89
2022/08/08 12:26:52;;;;;;;3.13;1.50;;;26.20;99.90;;;;;;5052657;28;20500;-80
2022/08/08 12:29:30;;;;;;;5.38;1.52;;;26.20;99.90;;;;;;5051578;28;20045;-80
2022/08/08 12:32:15;;;;;;;4.50;1.60;;;26.20;99.90;;;;;;5052608;28;20485;-80
2022/08/08 12:34:58;;;;;;;3.70;1.65;;;26.50;99.90;;;;;;5052854;28;20045;-90
2022/08/08 12:37:31;;;;;;;4.28;1.70;;;26.30;99.90;;;;;;5052978;28;20048;-87
2022/08/08 12:40:03;;;;;;;3.65;1.50;;;26.40;99.90;;;;;;5051459;28;20404;-88
2022/08/08 12:42:29;;;;;;;2.92;1.30;;;26.40;99.90;;;;;;5051609;28;20450;-89
2022/08/08 12:45:06;;;;;;;4.38;1.50;;;26.50;99.90;;;;;;5052883;28;20096;-87
2022/08/08 12:47:31;;;;;;;2.60;1.17;;;26.60;99.90;;;;;;5054684;28;20033;-89
2022/08/08 12:49:57;;;;;;;3.30;1.35;;;26.70;99.90;;;;;;5055531;28;20186;-87
2022/08/08 12:52:23;;;;;;;2.53;1.15;;;26.40;99.90;;;;;;5056387;28;20090;-87
2022/08/08 12:55:01;;;;;;;5.20;1.40;;;26.50;99.90;;;;;;5055064;28;20049;-87
2022/08/08 12:57:28;;;;;;;4.88;1.20;;;26.40;99.90;;;;;;5055171;28;20040;-87
2022/08/08 12:59:54;;;;;;;4.25;1.52;;;26.40;99.90;;;;;;5055153;28;20144;-88
2022/08/08 13:02:30;;;;;;;7.20;1.30;;;26.50;99.90;;;;;;5054814;28;20120;-90
2022/08/08 13:04:58;;;;;;;2.50;1.13;;;26.50;99.90;;;;;;5054869;28;20568;-91
2022/08/08 13:07:40;;;;;;;2.35;0.90;;;26.50;99.90;;;;;;5055182;28;20041;-89
2022/08/08 13:10:08;;;;;;;3.97;1.25;;;26.50;99.90;;;;;;5056330;28;20064;-91
2022/08/08 13:12:45;;;;;;;3.03;1.20;;;26.60;99.90;;;;;;5054647;28;20063;-78
2022/08/08 13:15:13;;;;;;;4.68;1.92;;;26.40;99.90;;;;;;5056173;28;20033;-80
2022/08/08 13:17:39;;;;;;;4.35;1.20;;;26.30;99.90;;;;;;5055785;28;20045;-80